Time;durP1;ratioP1;P1;durP2;ratioP2;P2;SDS_P1;SDS_P2;PMS_P1;PMS_P2;Temp;Humidity;BMP_temperature;BMP_pressure;BME280_temperature;BME280_humidity;BME280_pressure;Samples;Min_cycle;Max_cycle;Signal;HPM_P1;HPM_P2
2022/11/09 00:01:24;;;;;;;4.60;4.20;;;;;;;8.16;100.00;95657.66;5044129;28;20030;-65
2022/11/09 00:03:57;;;;;;;5.68;3.78;;;;;;;8.26;100.00;95650.69;5052280;28;20053;-65
2022/11/09 00:06:24;;;;;;;7.60;3.53;;;;;;;8.29;100.00;95650.47;5028063;28;20034;-65
2022/11/09 00:08:49;;;;;;;4.53;3.70;;;;;;;8.29;100.00;95646.97;5036622;28;20551;-57
2022/11/09 00:11:15;;;;;;;7.68;3.13;;;;;;;8.27;100.00;95646.28;5004474;28;20125;-58
2022/11/09 00:13:42;;;;;;;4.88;3.45;;;;;;;8.28;100.00;95646.13;5024100;28;20135;-57
2022/11/09 00:16:09;;;;;;;3.42;3.13;;;;;;;8.24;100.00;95646.53;5068950;28;20467;-57
2022/11/09 00:18:36;;;;;;;3.70;3.33;;;;;;;8.22;100.00;95646.66;5043577;28;20111;-57
2022/11/09 00:21:10;;;;;;;4.00;3.40;;;;;;;8.42;100.00;95638.91;5062302;28;20063;-57
2022/11/09 00:23:35;;;;;;;5.95;3.88;;;;;;;8.32;100.00;95634.44;5056321;28;20450;-57
2022/11/09 00:26:03;;;;;;;5.93;3.63;;;;;;;8.28;100.00;95629.59;5045907;28;20037;-57
2022/11/09 00:28:29;;;;;;;4.60;3.78;;;;;;;8.25;100.00;95625.41;5062133;28;20220;-60
2022/11/09 00:31:16;;;;;;;6.97;5.00;;;;;;;8.20;100.00;95622.34;5054228;28;20123;-58
2022/11/09 00:33:41;;;;;;;5.45;4.93;;;;;;;8.15;100.00;95624.53;5055761;28;20486;-58
2022/11/09 00:36:10;;;;;;;6.22;5.15;;;;;;;8.10;100.00;95627.53;5038594;28;20095;-58
2022/11/09 00:38:37;;;;;;;7.10;5.55;;;;;;;8.09;100.00;95627.69;5043213;28;20036;-58
2022/11/09 00:41:03;;;;;;;6.53;4.22;;;;;;;8.13;100.00;95615.97;5029623;28;20413;-58
2022/11/09 00:43:29;;;;;;;7.63;4.10;;;;;;;8.35;100.00;95628.09;5053448;28;20021;-59
2022/11/09 00:45:54;;;;;;;4.82;4.30;;;;;;;8.37;100.00;95631.41;5026665;28;20034;-58
2022/11/09 00:48:20;;;;;;;8.80;4.70;;;;;;;8.35;100.00;95628.09;5059951;28;20029;-64
2022/11/09 00:50:52;;;;;;;4.78;4.10;;;;;;;8.33;100.00;95624.78;5064458;28;20036;-61
2022/11/09 00:53:19;;;;;;;4.15;3.40;;;;;;;8.39;100.00;95618.19;5072498;28;20047;-61
2022/11/09 00:56:04;;;;;;;4.55;3.67;;;;;;;8.46;100.00;95622.78;5076326;28;20036;-62
2022/11/09 00:58:32;;;;;;;3.53;2.72;;;;;;;8.64;100.00;95622.22;5074971;28;20039;-62
2022/11/09 01:00:58;;;;;;;4.75;2.90;;;;;;;8.70;100.00;95618.22;5083516;28;20052;-62
2022/11/09 01:03:25;;;;;;;4.10;2.60;;;;;;;8.70;100.00;95615.59;5081071;28;20103;-61
2022/11/09 01:05:51;;;;;;;2.92;2.67;;;;;;;8.68;100.00;95617.50;5071460;28;20052;-57
2022/11/09 01:08:17;;;;;;;7.43;3.13;;;;;;;8.66;100.00;95615.03;5076984;28;20615;-61
2022/11/09 01:10:45;;;;;;;4.25;3.15;;;;;;;8.68;100.00;95617.50;5080541;28;20097;-63
2022/11/09 01:13:13;;;;;;;5.82;3.92;;;;;;;8.67;100.00;95619.31;5079193;28;20540;-65
2022/11/09 01:15:40;;;;;;;9.32;3.97;;;;;;;8.63;100.00;95615.31;5072173;28;20044;-63
2022/11/09 01:18:06;;;;;;;7.20;4.55;;;;;;;8.57;100.00;95608.78;5077125;28;20028;-63
2022/11/09 01:20:31;;;;;;;8.48;5.15;;;;;;;8.60;100.00;95615.53;5071975;28;20059;-63
2022/11/09 01:22:57;;;;;;;7.50;4.80;;;;;;;8.61;100.00;95625.06;5071849;28;20040;-63
2022/11/09 01:25:22;;;;;;;7.13;4.30;;;;;;;8.55;100.00;95626.44;5076062;28;20037;-72
2022/11/09 01:27:47;;;;;;;7.88;5.10;;;;;;;8.49;100.00;95619.06;5073401;28;20159;-64
2022/11/09 01:30:13;;;;;;;5.03;4.50;;;;;;;8.48;100.00;95625.25;5073934;28;20477;-63
2022/11/09 01:32:38;;;;;;;5.28;4.13;;;;;;;8.46;100.00;95614.91;5078513;28;20047;-63
2022/11/09 01:35:04;;;;;;;5.20;4.18;;;;;;;8.44;100.00;95608.13;5073654;28;20493;-63
2022/11/09 01:37:29;;;;;;;4.60;3.70;;;;;;;8.49;100.00;95618.25;5075558;28;20601;-63
2022/11/09 01:39:54;;;;;;;8.23;4.70;;;;;;;8.52;100.00;95618.00;5072907;28;20029;-62
2022/11/09 01:42:24;;;;;;;3.83;3.53;;;;;;;8.49;100.00;95605.94;5072667;28;20020;-62
2022/11/09 01:45:18;;;;;;;3.83;3.17;;;;;;;8.47;100.00;95610.47;5070290;28;20067;-58
2022/11/09 01:48:09;;;;;;;3.80;3.50;;;;;;;8.44;100.00;95616.00;5071073;28;20075;-64
2022/11/09 01:50:47;;;;;;;5.53;3.10;;;;;;;8.42;100.00;95616.16;5071119;28;20533;-58
2022/11/09 01:53:19;;;;;;;4.53;3.53;;;;;;;8.40;100.00;95604.09;5071284;28;20025;-58
2022/11/09 01:55:47;;;;;;;3.35;3.05;;;;;;;8.39;100.00;95603.25;5071000;28;20044;-58
2022/11/09 01:58:48;;;;;;;5.88;3.40;;;;;;;8.53;100.00;95598.66;5070978;28;20032;-58
2022/11/09 02:01:16;;;;;;;5.30;3.40;;;;;;;8.52;100.00;95591.75;5066791;28;20392;-58
2022/11/09 02:03:59;;;;;;;4.95;3.13;;;;;;;8.63;100.00;95590.84;5071292;28;20040;-64
2022/11/09 02:06:27;;;;;;;3.70;3.17;;;;;;;8.60;100.00;95591.91;5071176;28;20021;-64
2022/11/09 02:08:57;;;;;;;4.65;3.78;;;;;;;8.58;100.00;95576.31;5070507;28;20036;-62
2022/11/09 02:11:26;;;;;;;4.45;3.38;;;;;;;8.59;100.00;95577.16;5070999;28;20031;-62
2022/11/09 02:13:56;;;;;;;6.32;3.85;;;;;;;8.54;100.00;95574.94;5070609;28;20525;-62
2022/11/09 02:16:21;;;;;;;6.13;4.50;;;;;;;8.54;100.00;95576.72;5070816;28;20032;-62
2022/11/09 02:18:55;;;;;;;6.68;5.43;;;;;;;8.44;100.00;95569.63;5070412;28;20634;-62
2022/11/09 02:21:23;;;;;;;9.60;6.15;;;;;;;8.46;100.00;95567.69;5070388;28;20036;-62
2022/11/09 02:23:49;;;;;;;6.97;5.40;;;;;;;8.34;100.00;95568.72;5070659;28;20043;-62
2022/11/09 02:26:26;;;;;;;5.40;4.90;;;;;;;8.29;100.00;95558.66;5070669;28;20040;-64
2022/11/09 02:28:54;;;;;;;7.60;4.85;;;;;;;8.21;100.00;95566.31;5070256;28;20047;-62
2022/11/09 02:31:21;;;;;;;4.22;3.83;;;;;;;8.22;100.00;95561.91;5039877;28;20410;-62
2022/11/09 02:33:49;;;;;;;3.47;3.00;;;;;;;8.29;100.00;95556.03;5070016;28;20199;-63
2022/11/09 02:36:14;;;;;;;4.05;3.20;;;;;;;8.27;100.00;95565.78;5069959;28;20541;-62
2022/11/09 02:38:40;;;;;;;3.33;3.00;;;;;;;8.27;100.00;95567.59;5069757;28;20115;-63
2022/11/09 02:41:06;;;;;;;4.90;3.13;;;;;;;8.27;100.00;95563.16;5070094;28;20508;-62
2022/11/09 02:43:32;;;;;;;4.38;3.28;;;;;;;8.27;100.00;95572.84;5070520;28;20055;-62
2022/11/09 02:45:58;;;;;;;3.92;2.97;;;;;;;8.23;100.00;95571.44;5069947;28;20387;-61
2022/11/09 02:48:23;;;;;;;3.25;2.95;;;;;;;8.19;100.00;95567.44;5056836;28;20031;-58
2022/11/09 02:50:48;;;;;;;4.68;3.28;;;;;;;8.16;100.00;95577.19;5069586;28;20106;-57
2022/11/09 02:53:14;;;;;;;3.22;2.92;;;;;;;8.17;100.00;95573.59;5069896;28;20028;-56
2022/11/09 02:55:39;;;;;;;5.07;2.80;;;;;;;8.20;100.00;95574.34;5069915;28;20094;-58
2022/11/09 02:58:04;;;;;;;6.93;2.90;;;;;;;8.22;100.00;95573.22;5069960;28;20453;-57
2022/11/09 03:00:30;;;;;;;3.45;3.00;;;;;;;8.24;100.00;95566.06;5051826;28;20036;-57
2022/11/09 03:02:55;;;;;;;5.88;2.80;;;;;;;8.23;100.00;95574.06;5069314;28;20052;-62
2022/11/09 03:05:21;;;;;;;2.65;2.50;;;;;;;8.23;100.00;95574.06;5069929;28;20516;-62
2022/11/09 03:07:46;;;;;;;4.57;2.72;;;;;;;8.23;100.00;95577.50;5069103;28;20048;-64
2022/11/09 03:10:12;;;;;;;2.80;2.60;;;;;;;8.24;100.00;95584.41;5069622;28;20470;-64
2022/11/09 03:12:37;;;;;;;4.47;2.50;;;;;;;8.25;100.00;95593.94;5069663;28;20047;-65
2022/11/09 03:15:06;;;;;;;3.28;2.72;;;;;;;8.27;100.00;95594.63;5069957;28;20024;-64
2022/11/09 03:17:32;;;;;;;2.30;2.20;;;;;;;8.42;100.00;95603.03;5069548;28;20528;-64
2022/11/09 03:19:57;;;;;;;4.63;2.78;;;;;;;8.48;100.00;95612.16;5069403;28;20067;-64
2022/11/09 03:22:22;;;;;;;5.57;3.00;;;;;;;8.45;100.00;95618.50;5069533;28;20547;-58
2022/11/09 03:24:48;;;;;;;4.20;2.47;;;;;;;8.42;100.00;95610.91;5069262;28;20078;-63
2022/11/09 03:27:14;;;;;;;4.25;2.80;;;;;;;8.41;100.00;95600.53;5069540;28;20025;-63
2022/11/09 03:29:39;;;;;;;2.78;2.58;;;;;;;8.42;100.00;95603.03;5069329;28;20047;-63
2022/11/09 03:32:05;;;;;;;4.35;2.83;;;;;;;8.43;100.00;95590.72;5069598;28;20043;-63
2022/11/09 03:34:31;;;;;;;7.68;2.47;;;;;;;8.39;100.00;95579.66;5069048;28;20028;-63
2022/11/09 03:36:56;;;;;;;2.83;2.47;;;;;;;8.43;100.00;95588.09;5067176;28;20104;-62
2022/11/09 03:39:21;;;;;;;4.40;2.97;;;;;;;8.42;100.00;95586.44;5069411;28;20063;-63
2022/11/09 03:41:47;;;;;;;5.90;2.55;;;;;;;8.38;100.00;95583.25;5069265;28;20067;-57
2022/11/09 03:44:12;;;;;;;3.88;2.33;;;;;;;8.37;100.00;95570.28;5069397;28;20056;-74
2022/11/09 03:46:37;;;;;;;3.58;2.70;;;;;;;8.38;100.00;95574.56;5069616;28;20035;-74
2022/11/09 03:49:03;;;;;;;4.18;2.15;;;;;;;8.36;100.00;95571.22;5064702;28;20135;-74
2022/11/09 03:51:28;;;;;;;2.80;2.47;;;;;;;8.34;100.00;95579.22;5050416;28;20396;-74
2022/11/09 03:53:54;;;;;;;2.97;2.55;;;;;;;8.33;100.00;95574.94;5066696;28;20028;-74
2022/11/09 03:56:19;;;;;;;6.32;2.38;;;;;;;8.32;100.00;95589.00;5051434;28;20025;-74
2022/11/09 03:58:44;;;;;;;2.42;2.22;;;;;;;8.32;100.00;95592.47;5068674;28;20086;-75
2022/11/09 04:01:10;;;;;;;4.20;2.35;;;;;;;8.30;100.00;95594.41;5039119;28;20035;-61
2022/11/09 04:03:36;;;;;;;2.38;2.22;;;;;;;8.29;100.00;95608.47;5069121;28;20102;-61
2022/11/09 04:06:02;;;;;;;6.28;2.28;;;;;;;8.27;100.00;95605.13;5069436;28;20078;-62
2022/11/09 04:08:27;;;;;;;2.67;2.47;;;;;;;8.26;100.00;95600.03;5068796;28;20456;-62
2022/11/09 04:10:52;;;;;;;2.17;2.08;;;;;;;8.24;100.00;95602.78;5068661;28;20033;-62
2022/11/09 04:13:18;;;;;;;2.67;2.30;;;;;;;8.21;100.00;95599.59;5069184;28;20036;-62
2022/11/09 04:15:44;;;;;;;3.15;2.95;;;;;;;8.22;100.00;95599.44;5071275;28;20417;-63
2022/11/09 04:18:13;;;;;;;3.55;3.13;;;;;;;8.28;100.00;95595.50;5060127;28;20044;-62
2022/11/09 04:20:39;;;;;;;3.78;2.85;;;;;;;8.28;100.00;95603.34;5072846;28;20032;-74
2022/11/09 04:23:05;;;;;;;2.67;2.47;;;;;;;8.28;100.00;95596.31;5055113;28;20029;-73
2022/11/09 04:25:33;;;;;;;3.15;2.20;;;;;;;8.30;100.00;95593.56;5072769;28;20033;-73
2022/11/09 04:28:00;;;;;;;5.30;3.40;;;;;;;8.32;100.00;95597.72;5073102;28;20029;-73
2022/11/09 04:30:27;;;;;;;4.93;3.97;;;;;;;8.34;100.00;95592.34;5072162;28;20481;-73
2022/11/09 04:32:53;;;;;;;6.10;3.78;;;;;;;8.43;100.00;95604.69;5072808;28;20115;-73
2022/11/09 04:35:19;;;;;;;3.30;3.03;;;;;;;8.44;100.00;95597.63;5072813;28;20181;-73
2022/11/09 04:37:55;;;;;;;3.08;2.78;;;;;;;8.44;100.00;95608.97;5072962;28;20640;-57
2022/11/09 04:40:22;;;;;;;4.13;3.00;;;;;;;8.44;100.00;95610.75;5072523;28;20033;-72
2022/11/09 04:42:47;;;;;;;5.20;2.65;;;;;;;8.45;100.00;95608.00;5072814;28;20032;-64
2022/11/09 04:45:13;;;;;;;5.68;3.45;;;;;;;8.44;100.00;95610.75;5072162;28;20047;-64
2022/11/09 04:47:38;;;;;;;3.47;2.78;;;;;;;8.45;100.00;95591.41;5072346;28;20039;-64
2022/11/09 04:50:04;;;;;;;3.72;2.40;;;;;;;8.44;100.00;95592.38;5072159;28;20055;-64
2022/11/09 04:52:30;;;;;;;2.85;2.25;;;;;;;8.45;100.00;95580.94;5072094;28;20068;-64
2022/11/09 04:54:56;;;;;;;3.83;1.98;;;;;;;8.43;100.00;95588.94;5072254;28;20056;-65
2022/11/09 04:57:21;;;;;;;3.65;2.50;;;;;;;8.45;100.00;95597.50;5072316;28;20028;-62
2022/11/09 04:59:46;;;;;;;4.03;2.47;;;;;;;8.55;100.00;95592.34;5072004;28;20044;-64
2022/11/09 05:02:12;;;;;;;6.25;2.38;;;;;;;8.68;100.00;95599.13;5072648;28;20575;-57
2022/11/09 05:04:37;;;;;;;4.85;2.67;;;;;;;8.63;100.00;95588.22;5071758;28;20559;-56
2022/11/09 05:07:02;;;;;;;3.28;2.83;;;;;;;8.58;100.00;95594.69;5072326;28;20040;-57
2022/11/09 05:09:28;;;;;;;3.88;2.78;;;;;;;8.66;100.00;95593.19;5072014;28;20085;-57
2022/11/09 05:11:53;;;;;;;3.95;2.97;;;;;;;8.66;100.00;95593.19;5072164;28;20035;-57
2022/11/09 05:14:18;;;;;;;3.30;2.67;;;;;;;8.59;100.00;95580.63;5071395;28;20029;-57
2022/11/09 05:16:44;;;;;;;2.63;2.42;;;;;;;8.64;100.00;95582.00;5070774;28;20052;-65
2022/11/09 05:19:09;;;;;;;2.90;2.70;;;;;;;8.57;100.00;95585.16;5071083;28;20032;-64
2022/11/09 05:21:34;;;;;;;5.72;3.38;;;;;;;8.54;100.00;95579.34;5071664;28;20090;-58
2022/11/09 05:24:01;;;;;;;2.75;2.55;;;;;;;8.57;100.00;95585.16;5071217;28;20115;-57
2022/11/09 05:26:31;;;;;;;3.78;2.35;;;;;;;8.51;100.00;95588.31;5071426;28;20120;-58
2022/11/09 05:28:57;;;;;;;4.15;2.70;;;;;;;8.63;100.00;95586.44;5071277;28;20124;-58
2022/11/09 05:31:23;;;;;;;4.95;2.78;;;;;;;8.79;100.00;95582.47;5071783;28;20055;-58
2022/11/09 05:33:50;;;;;;;3.22;2.58;;;;;;;8.70;100.00;95584.94;5071664;28;20097;-58
2022/11/09 05:36:17;;;;;;;3.75;2.42;;;;;;;8.68;100.00;95593.88;5071886;28;20033;-64
2022/11/09 05:38:42;;;;;;;2.75;2.63;;;;;;;8.69;100.00;95585.06;5071708;28;20063;-63
2022/11/09 05:41:08;;;;;;;3.85;2.90;;;;;;;8.71;100.00;95591.00;5070861;28;20061;-58
2022/11/09 05:43:33;;;;;;;2.63;2.42;;;;;;;8.73;100.00;95589.91;5070807;28;20095;-58
2022/11/09 05:45:58;;;;;;;3.53;2.40;;;;;;;8.83;100.00;95589.94;5071503;28;20108;-58
2022/11/09 05:48:24;;;;;;;3.10;2.47;;;;;;;8.84;100.00;95590.75;5052806;28;20037;-58
2022/11/09 05:50:49;;;;;;;4.90;2.63;;;;;;;8.91;100.00;95591.91;5071486;28;20514;-58
2022/11/09 05:53:14;;;;;;;3.70;3.40;;;;;;;8.90;100.00;95606.00;5071177;28;20060;-58
2022/11/09 05:55:40;;;;;;;4.88;3.40;;;;;;;8.85;100.00;95598.50;5071255;28;20029;-58
2022/11/09 05:58:06;;;;;;;3.25;2.75;;;;;;;8.76;100.00;95593.22;5070939;28;20095;-63
2022/11/09 06:00:31;;;;;;;5.13;3.10;;;;;;;8.85;100.00;95614.25;5071013;28;20036;-65
2022/11/09 06:03:08;;;;;;;5.03;3.15;;;;;;;8.81;100.00;95612.88;5071104;28;20115;-65
2022/11/09 06:05:35;;;;;;;4.10;3.67;;;;;;;8.87;100.00;95607.09;5070996;28;20033;-65
2022/11/09 06:08:06;;;;;;;12.98;8.05;;;;;;;8.89;100.00;95612.22;5070138;28;20417;-66
2022/11/09 06:10:31;;;;;;;12.98;8.60;;;;;;;8.93;100.00;95621.47;5069546;28;20044;-65
2022/11/09 06:12:56;;;;;;;5.55;4.28;;;;;;;8.96;100.00;95626.47;5070844;28;20033;-65
2022/11/09 06:15:23;;;;;;;5.45;3.63;;;;;;;9.00;100.00;95634.91;5070663;28;20111;-65
2022/11/09 06:17:52;;;;;;;3.60;2.92;;;;;;;9.19;100.00;95633.31;5070805;28;20410;-58
2022/11/09 06:20:17;;;;;;;3.00;2.70;;;;;;;9.24;100.00;95644.25;5070157;28;20029;-57
2022/11/09 06:22:42;;;;;;;2.75;2.50;;;;;;;9.24;100.00;95652.94;5070590;28;20359;-57
2022/11/09 06:25:08;;;;;;;4.60;3.70;;;;;;;9.14;100.00;95645.03;5052252;28;20111;-57
2022/11/09 06:27:33;;;;;;;4.68;4.18;;;;;;;9.02;100.00;95643.50;5070388;28;20032;-57
2022/11/09 06:29:58;;;;;;;4.22;3.58;;;;;;;8.93;100.00;95665.28;5070111;28;20044;-57
2022/11/09 06:32:24;;;;;;;6.43;4.22;;;;;;;8.87;100.00;95659.59;5070078;28;20083;-56
2022/11/09 06:34:49;;;;;;;3.70;3.40;;;;;;;8.85;100.00;95656.28;5070155;28;20036;-73
2022/11/09 06:37:16;;;;;;;7.30;3.20;;;;;;;8.81;100.00;95654.88;5069421;28;20044;-56
2022/11/09 06:39:43;;;;;;;4.45;4.05;;;;;;;8.80;100.00;95676.00;5070034;28;20072;-56
2022/11/09 06:42:08;;;;;;;3.35;3.15;;;;;;;8.83;100.00;95678.34;5070011;28;20025;-57
2022/11/09 06:44:33;;;;;;;4.10;3.10;;;;;;;8.83;100.00;95673.09;5070078;28;20508;-58
2022/11/09 06:46:59;;;;;;;3.40;3.10;;;;;;;8.80;100.00;95676.00;5066885;28;20040;-57
2022/11/09 06:49:24;;;;;;;5.30;3.33;;;;;;;8.78;100.00;95677.94;5069448;28;20056;-57
2022/11/09 06:51:49;;;;;;;4.85;3.20;;;;;;;8.76;100.00;95680.69;5068869;28;20717;-57
2022/11/09 06:54:15;;;;;;;3.70;3.50;;;;;;;8.84;100.00;95680.88;5068681;28;20176;-65
2022/11/09 06:56:40;;;;;;;3.72;3.42;;;;;;;8.86;100.00;95680.75;5068236;28;20501;-74
2022/11/09 06:59:06;;;;;;;5.45;4.90;;;;;;;8.88;100.00;95682.25;5051425;28;20701;-74
2022/11/09 07:01:32;;;;;;;5.55;5.13;;;;;;;9.02;100.00;95677.63;5068646;28;20142;-74
2022/11/09 07:03:57;;;;;;;6.75;4.25;;;;;;;9.19;100.00;95675.34;5068153;28;20488;-75
2022/11/09 07:06:22;;;;;;;6.25;4.40;;;;;;;9.08;100.00;95682.34;5068080;28;20075;-74
2022/11/09 07:08:48;;;;;;;5.82;4.90;;;;;;;9.00;100.00;95671.69;5069432;28;20047;-74
2022/11/09 07:11:18;;;;;;;7.57;5.90;;;;;;;8.99;100.00;95670.84;5069441;28;20024;-74
2022/11/09 07:13:44;;;;;;;7.25;6.30;;;;;;;9.32;100.00;95679.38;5069154;28;20039;-73
2022/11/09 07:16:11;;;;;;;9.75;7.45;;;;;;;9.35;100.00;95683.53;5069455;28;20032;-65
2022/11/09 07:18:36;;;;;;;11.10;7.93;;;;;;;9.19;100.00;95683.22;5069050;28;20078;-65
2022/11/09 07:21:04;;;;;;;8.02;7.20;;;;;;;9.13;100.00;95677.50;5068989;28;20041;-65
2022/11/09 07:23:29;;;;;;;13.38;7.13;;;;;;;9.09;100.00;95685.81;5049238;28;20064;-65
2022/11/09 07:25:57;;;;;;;9.00;6.93;;;;;;;9.06;100.00;95688.69;5068210;28;20044;-65
2022/11/09 07:28:23;;;;;;;10.35;7.53;;;;;;;9.06;100.00;95700.03;5064379;28;20043;-65
2022/11/09 07:30:51;;;;;;;9.05;7.35;;;;;;;9.07;100.00;95688.56;5067704;28;20407;-65
2022/11/09 07:33:18;;;;;;;11.88;9.25;;;;;;;9.11;100.00;95703.09;5067539;28;20054;-57
2022/11/09 07:35:44;;;;;;;10.80;9.70;;;;;;;9.14;100.00;95708.06;5068838;28;20066;-57
2022/11/09 07:38:10;;;;;;;12.02;8.75;;;;;;;9.19;100.00;95709.50;5068472;28;20287;-57
2022/11/09 07:40:35;;;;;;;10.00;9.02;;;;;;;9.20;100.00;95711.97;5041782;28;20385;-58
2022/11/09 07:43:03;;;;;;;9.82;8.90;;;;;;;9.21;100.00;95708.38;5063007;28;20155;-58
2022/11/09 07:45:30;;;;;;;8.93;8.02;;;;;;;9.21;100.00;95718.88;5068849;28;20111;-56
2022/11/09 07:48:00;;;;;;;8.35;7.45;;;;;;;9.21;100.00;95713.63;5059934;28;20506;-57
2022/11/09 07:50:26;;;;;;;8.25;7.50;;;;;;;9.26;100.00;95718.50;5066769;28;20020;-59
2022/11/09 07:52:57;;;;;;;7.63;6.93;;;;;;;9.30;100.00;95727.75;5067134;28;20119;-61
2022/11/09 07:55:23;;;;;;;8.10;7.38;;;;;;;9.32;100.00;95723.19;5068458;28;20036;-58
2022/11/09 07:57:54;;;;;;;8.48;7.65;;;;;;;9.34;100.00;95728.34;5068580;28;20079;-58
2022/11/09 08:00:20;;;;;;;8.45;7.65;;;;;;;9.37;100.00;95728.88;5068527;28;20055;-58
2022/11/09 08:02:48;;;;;;;9.73;7.53;;;;;;;9.38;100.00;95729.72;5068847;28;20075;-58
2022/11/09 08:05:14;;;;;;;13.82;10.05;;;;;;;9.37;100.00;95728.88;5056045;28;20024;-58
2022/11/09 08:07:39;;;;;;;14.00;8.00;;;;;;;9.38;100.00;95729.72;5067863;28;20041;-57
2022/11/09 08:10:05;;;;;;;8.98;8.02;;;;;;;9.39;100.00;95726.13;5061348;28;20036;-60
2022/11/09 08:12:30;;;;;;;9.00;6.20;;;;;;;9.41;100.00;95734.72;5066300;28;20040;-64
2022/11/09 08:14:55;;;;;;;8.13;7.32;;;;;;;9.43;100.00;95735.41;5066975;28;20043;-67
2022/11/09 08:17:21;;;;;;;8.95;6.80;;;;;;;9.45;100.00;95736.94;5067614;28;20079;-67
2022/11/09 08:19:46;;;;;;;8.30;7.03;;;;;;;9.46;100.00;95743.88;5067238;28;20040;-67
2022/11/09 08:22:12;;;;;;;8.75;6.68;;;;;;;9.51;100.00;95742.63;5068369;28;20060;-67
2022/11/09 08:24:37;;;;;;;7.70;6.05;;;;;;;9.49;100.00;95747.19;5066316;28;20041;-67
2022/11/09 08:27:03;;;;;;;6.68;6.05;;;;;;;9.50;100.00;95746.22;5067305;28;20497;-67
2022/11/09 08:29:28;;;;;;;6.32;5.55;;;;;;;9.49;100.00;95736.66;5049838;28;20040;-66
2022/11/09 08:31:54;;;;;;;11.35;9.05;;;;;;;9.49;100.00;95736.66;5061531;28;20058;-64
2022/11/09 08:34:19;;;;;;;11.73;7.72;;;;;;;9.49;100.00;95734.88;5066376;28;20033;-64
2022/11/09 08:36:44;;;;;;;10.23;8.40;;;;;;;9.50;100.00;95733.91;5066964;28;20063;-64
2022/11/09 08:39:10;;;;;;;10.50;7.00;;;;;;;9.50;100.00;95733.09;5067353;28;20512;-65
2022/11/09 08:41:35;;;;;;;6.80;6.13;;;;;;;9.48;100.00;95740.28;5066760;28;20390;-65
2022/11/09 08:44:01;;;;;;;9.70;6.00;;;;;;;9.46;100.00;95743.03;5064437;28;20032;-65
2022/11/09 08:46:26;;;;;;;5.60;5.10;;;;;;;9.46;100.00;95732.50;5068235;28;20031;-65
2022/11/09 08:48:52;;;;;;;6.57;5.95;;;;;;;9.48;100.00;95737.63;5067776;28;20037;-60
2022/11/09 08:51:17;;;;;;;6.45;5.20;;;;;;;9.47;100.00;95739.41;5067889;28;20109;-61
2022/11/09 08:53:43;;;;;;;8.48;5.95;;;;;;;9.48;100.00;95741.09;5067853;28;20453;-60
2022/11/09 08:56:09;;;;;;;10.25;6.95;;;;;;;9.50;100.00;95746.22;5065771;28;20062;-61
2022/11/09 08:58:35;;;;;;;7.28;6.68;;;;;;;9.49;100.00;95752.44;5065080;28;20489;-60
2022/11/09 09:01:05;;;;;;;7.47;6.00;;;;;;;9.52;100.00;95749.53;5067818;28;20490;-60
2022/11/09 09:03:31;;;;;;;9.18;5.82;;;;;;;9.54;100.00;95750.25;5062970;28;20048;-60
2022/11/09 09:05:56;;;;;;;10.18;6.32;;;;;;;9.53;100.00;95762.56;5070728;28;20816;-60
2022/11/09 09:08:21;;;;;;;7.88;5.10;;;;;;;9.55;100.00;95771.16;5070291;28;20086;-61
2022/11/09 09:10:47;;;;;;;9.07;6.43;;;;;;;9.58;100.00;95767.41;5069461;28;20062;-60
2022/11/09 09:13:12;;;;;;;12.70;9.13;;;;;;;9.62;100.00;95765.34;5071243;28;20025;-58
2022/11/09 09:15:38;;;;;;;19.45;10.68;;;;;;;9.63;100.00;95764.38;5071492;28;20025;-58
2022/11/09 09:18:04;;;;;;;18.52;11.57;;;;;;;9.65;100.00;95765.91;5069757;28;20043;-58
2022/11/09 09:20:30;;;;;;;12.30;8.80;;;;;;;9.60;100.00;95768.09;5070989;28;20642;-58
2022/11/09 09:22:59;;;;;;;11.90;8.07;;;;;;;9.61;100.00;95764.50;5071741;28;20047;-58
2022/11/09 09:25:25;;;;;;;12.70;10.57;;;;;;;9.56;100.00;95771.97;5071161;28;20037;-58
2022/11/09 09:27:50;;;;;;;9.18;6.07;;;;;;;9.52;100.00;95778.44;5071547;28;20044;-74
2022/11/09 09:30:16;;;;;;;6.60;4.72;;;;;;;9.54;100.00;95769.47;5071681;28;20036;-61
2022/11/09 09:32:41;;;;;;;5.30;4.03;;;;;;;9.50;100.00;95775.13;5071229;28;20029;-63
2022/11/09 09:35:07;;;;;;;6.45;4.90;;;;;;;9.42;100.00;95776.63;5071155;28;20044;-64
2022/11/09 09:37:33;;;;;;;7.35;5.68;;;;;;;9.40;100.00;95768.06;5071194;28;20456;-65
2022/11/09 09:39:59;;;;;;;9.48;5.43;;;;;;;9.38;100.00;95766.50;5071164;28;20593;-64
2022/11/09 09:42:33;;;;;;;5.03;4.53;;;;;;;9.37;100.00;95764.84;5070083;28;20025;-64
2022/11/09 09:45:09;;;;;;;4.18;3.63;;;;;;;9.37;100.00;95762.22;5070567;28;20048;-64
2022/11/09 09:47:53;;;;;;;5.63;5.13;;;;;;;9.35;100.00;95770.22;5059524;28;20043;-64
2022/11/09 09:50:53;;;;;;;4.93;4.32;;;;;;;9.32;100.00;95762.63;5070559;28;20020;-58
2022/11/09 09:53:33;;;;;;;4.97;4.47;;;;;;;9.33;100.00;95772.16;5069302;28;20115;-58
2022/11/09 09:56:08;;;;;;;6.22;5.60;;;;;;;9.34;100.00;95758.06;5058229;28;20061;-58
2022/11/09 09:58:38;;;;;;;7.38;5.38;;;;;;;9.29;100.00;95757.63;5067625;28;20076;-58
2022/11/09 10:01:14;;;;;;;7.88;6.78;;;;;;;9.29;100.00;95755.00;5070169;28;20029;-58
2022/11/09 10:03:39;;;;;;;7.95;6.53;;;;;;;9.32;100.00;95765.25;5070931;28;20075;-58
2022/11/09 10:06:39;;;;;;;5.30;4.80;;;;;;;9.32;100.00;95757.34;5070155;28;20063;-58
2022/11/09 10:09:13;;;;;;;6.65;5.40;;;;;;;9.35;100.00;95749.19;5070851;28;20040;-58
2022/11/09 10:12:05;;;;;;;5.97;5.38;;;;;;;9.38;100.00;95756.00;5070372;28;20037;-58
2022/11/09 10:14:36;;;;;;;5.57;5.07;;;;;;;9.37;100.00;95754.34;5070326;28;20552;-58
2022/11/09 10:17:18;;;;;;;12.65;11.48;;;;;;;9.37;100.00;95759.59;5070124;28;20059;-58
2022/11/09 10:20:09;;;;;;;13.25;9.07;;;;;;;9.36;100.00;95756.13;5070401;28;20090;-58
2022/11/09 10:22:58;;;;;;;13.50;7.32;;;;;;;9.37;100.00;95749.91;5058191;28;20465;-59
2022/11/09 10:25:26;;;;;;;11.23;7.47;;;;;;;9.37;100.00;95755.16;5070075;28;20528;-61
2022/11/09 10:27:59;;;;;;;8.95;7.57;;;;;;;9.37;100.00;95742.03;5070155;28;20454;-61
2022/11/09 10:30:27;;;;;;;10.68;6.50;;;;;;;9.50;100.00;95740.97;5070226;28;20064;-74
2022/11/09 10:32:58;;;;;;;12.30;10.77;;;;;;;9.50;100.00;95738.34;5070626;28;20029;-74
2022/11/09 10:35:34;;;;;;;8.93;8.10;;;;;;;9.53;100.00;95743.31;5070113;28;20028;-74
2022/11/09 10:37:59;;;;;;;12.88;8.55;;;;;;;9.55;100.00;95741.38;5069887;28;20542;-74
2022/11/09 10:40:37;;;;;;;9.55;8.63;;;;;;;9.42;100.00;95741.63;5070044;28;20037;-74
2022/11/09 10:43:10;;;;;;;12.80;9.93;;;;;;;9.37;100.00;95739.38;5039250;28;20036;-74
2022/11/09 10:45:41;;;;;;;10.32;9.27;;;;;;;9.41;100.00;95735.56;5069715;28;20036;-66
2022/11/09 10:48:09;;;;;;;10.82;9.63;;;;;;;9.42;100.00;95729.34;5069959;28;20036;-58
2022/11/09 10:50:38;;;;;;;15.60;14.07;;;;;;;9.36;100.00;95736.91;5069189;28;20040;-59
2022/11/09 10:53:20;;;;;;;12.60;11.20;;;;;;;9.36;100.00;95732.47;5069795;28;20044;-59
2022/11/09 10:55:55;;;;;;;14.07;10.50;;;;;;;9.41;100.00;95740.81;5058676;28;20550;-59
2022/11/09 10:58:33;;;;;;;10.18;9.18;;;;;;;9.45;100.00;95738.72;5069030;28;20064;-58
2022/11/09 11:01:00;;;;;;;11.48;8.48;;;;;;;9.56;100.00;95743.91;5069466;28;20107;-58
2022/11/09 11:03:27;;;;;;;9.15;8.20;;;;;;;9.64;100.00;95747.63;5068410;28;20565;-64
2022/11/09 11:05:58;;;;;;;9.32;7.55;;;;;;;9.79;100.00;95734.94;5068599;28;20103;-61
2022/11/09 11:08:31;;;;;;;8.57;7.70;;;;;;;9.96;100.00;95731.63;5069000;28;20497;-65
2022/11/09 11:11:06;;;;;;;14.27;7.95;;;;;;;10.12;100.00;95738.16;5069134;28;20883;-65
2022/11/09 11:13:32;;;;;;;;;;;;;;;10.16;100.00;95740.34;5067753;28;20119;-65
2022/11/09 11:15:57;;;;;;;7.80;6.47;;;;;;;10.18;100.00;95734.97;5069120;28;19908;-65
2022/11/09 11:18:25;;;;;;;7.65;6.70;;;;;;;10.22;100.00;95743.44;5069602;28;20107;-65
2022/11/09 11:21:21;;;;;;;9.32;6.38;;;;;;;10.24;100.00;95749.38;5068941;28;20599;-65
2022/11/09 11:24:11;;;;;;;9.23;8.07;;;;;;;10.20;100.00;95754.06;5054877;28;20521;-62
2022/11/09 11:27:05;;;;;;;7.63;6.93;;;;;;;10.21;100.00;95755.75;5066467;28;20068;-58
2022/11/09 11:29:45;;;;;;;8.40;7.20;;;;;;;10.22;100.00;95753.94;5065582;28;20033;-58
2022/11/09 11:32:14;;;;;;;8.98;7.00;;;;;;;10.25;100.00;95754.50;5066268;28;20062;-58
2022/11/09 11:34:39;;;;;;;7.13;6.53;;;;;;;10.27;100.00;95764.88;5068035;28;20101;-58
2022/11/09 11:37:25;;;;;;;10.77;9.68;;;;;;;10.33;100.00;95761.69;5067515;28;20494;-58